createdAt,value
2018-11-13T00:01:19.453Z,8.53
2018-11-13T00:03:47.890Z,8.55
2018-11-13T00:06:16.463Z,8.55
2018-11-13T00:08:45.043Z,8.55
2018-11-13T00:11:13.626Z,8.55
2018-11-13T00:13:42.145Z,8.57
2018-11-13T00:16:10.827Z,8.59
2018-11-13T00:18:39.280Z,8.58
2018-11-13T00:21:08.069Z,8.57
2018-11-13T00:23:36.687Z,8.56
2018-11-13T00:26:05.208Z,8.56
2018-11-13T00:28:34.127Z,8.58
2018-11-13T00:31:02.914Z,8.60
2018-11-13T00:33:31.354Z,8.61
2018-11-13T00:36:00.122Z,8.60
2018-11-13T00:38:28.694Z,8.59
2018-11-13T00:40:57.137Z,8.59
2018-11-13T00:43:25.862Z,8.59
2018-11-13T00:45:54.915Z,8.58
2018-11-13T00:48:23.064Z,8.56
2018-11-13T00:50:51.927Z,8.56
2018-11-13T00:53:20.494Z,8.57
2018-11-13T00:55:48.965Z,8.54
2018-11-13T00:58:17.739Z,8.54
2018-11-13T01:00:46.850Z,8.55
2018-11-13T01:03:15.293Z,8.56
2018-11-13T01:05:44.136Z,8.56
2018-11-13T01:08:12.889Z,8.55
2018-11-13T01:10:41.337Z,8.56
2018-11-13T01:13:09.877Z,8.56
2018-11-13T01:15:38.565Z,8.58
2018-11-13T01:18:07.081Z,8.59
2018-11-13T01:20:35.609Z,8.58
2018-11-13T01:23:04.289Z,8.57
2018-11-13T01:25:32.752Z,8.55
2018-11-13T01:28:01.284Z,8.54
2018-11-13T01:30:30.045Z,8.54
2018-11-13T01:32:58.474Z,8.54
2018-11-13T01:35:27.403Z,8.52
2018-11-13T01:37:56.004Z,8.53
2018-11-13T01:40:24.489Z,8.56
2018-11-13T01:42:53.460Z,8.57
2018-11-13T01:45:22.132Z,8.58
2018-11-13T01:47:50.628Z,8.59
2018-11-13T01:50:19.515Z,8.59
2018-11-13T01:52:48.509Z,8.60
2018-11-13T01:55:17.080Z,8.59
2018-11-13T01:57:46.125Z,8.60
2018-11-13T02:00:23.830Z,8.60
2018-11-13T02:02:53.540Z,8.59
2018-11-13T02:05:24.501Z,8.59
2018-11-13T02:07:53.578Z,8.58
2018-11-13T02:10:22.133Z,8.58
2018-11-13T02:12:51.446Z,8.58
2018-11-13T02:15:20.457Z,8.57
2018-11-13T02:17:48.971Z,8.56
2018-11-13T02:20:19.973Z,6.94
2018-11-13T02:22:48.448Z,8.55
2018-11-13T02:25:17.962Z,8.54
2018-11-13T02:27:46.781Z,8.53
2018-11-13T02:30:17.196Z,8.54
2018-11-13T02:32:46.258Z,8.52
2018-11-13T02:35:15.313Z,8.48
2018-11-13T02:37:43.964Z,8.47
2018-11-13T02:40:12.461Z,8.29
2018-11-13T02:42:41.388Z,8.44
2018-11-13T02:45:12.432Z,8.42
2018-11-13T02:47:41.533Z,8.37
2018-11-13T02:50:12.189Z,8.29
2018-11-13T02:52:41.137Z,8.28
2018-11-13T02:55:10.537Z,8.25
2018-11-13T02:57:39.385Z,8.19
2018-11-13T03:00:10.609Z,8.15
2018-11-13T03:02:39.190Z,8.10
2018-11-13T03:05:09.433Z,8.07
2018-11-13T03:07:37.901Z,8.05
2018-11-13T03:10:08.111Z,8.03
2018-11-13T03:12:37.145Z,8.00
2018-11-13T03:15:06.445Z,7.98
2018-11-13T03:17:35.454Z,7.96
2018-11-13T03:20:04.729Z,7.96
2018-11-13T03:22:33.214Z,7.94
2018-11-13T03:25:01.784Z,7.92
2018-11-13T03:27:30.552Z,7.90
2018-11-13T03:29:59.015Z,7.93
2018-11-13T03:32:27.595Z,7.94
2018-11-13T03:34:56.214Z,7.96
2018-11-13T03:37:24.689Z,7.99
2018-11-13T03:39:53.315Z,8.00
2018-11-13T03:42:21.991Z,8.03
2018-11-13T03:44:50.449Z,8.03
2018-11-13T03:47:19.309Z,8.02
2018-11-13T03:49:48.040Z,8.05
2018-11-13T03:52:16.886Z,8.06
2018-11-13T03:54:45.412Z,8.03
2018-11-13T03:57:14.192Z,8.04
2018-11-13T03:59:42.661Z,8.05
2018-11-13T04:02:11.491Z,8.04
2018-11-13T04:04:40.035Z,8.02
2018-11-13T04:07:15.000Z,8.00
2018-11-13T04:09:43.550Z,7.99
2018-11-13T04:12:12.009Z,7.98
2018-11-13T04:14:40.596Z,7.97
2018-11-13T04:17:09.205Z,7.94
2018-11-13T04:19:37.637Z,7.92
2018-11-13T04:22:06.745Z,7.90
2018-11-13T04:24:35.333Z,7.89
2018-11-13T04:27:03.813Z,7.89
2018-11-13T04:29:32.566Z,7.87
2018-11-13T04:32:01.818Z,7.88
2018-11-13T04:34:30.257Z,7.84
2018-11-13T04:36:58.931Z,7.83
2018-11-13T04:39:27.577Z,7.80
2018-11-13T04:41:56.025Z,7.81
2018-11-13T04:44:24.916Z,7.85
2018-11-13T04:46:53.449Z,7.87
2018-11-13T04:49:21.930Z,7.87
2018-11-13T04:51:50.666Z,7.85
2018-11-13T04:54:26.155Z,7.86
2018-11-13T04:56:54.804Z,7.83
2018-11-13T04:59:23.401Z,7.80
2018-11-13T05:01:52.298Z,7.80
2018-11-13T05:04:20.869Z,7.82
2018-11-13T05:06:49.317Z,7.80
2018-11-13T05:09:17.829Z,7.80
2018-11-13T05:11:46.408Z,7.82
2018-11-13T05:14:14.864Z,7.86
2018-11-13T05:16:43.474Z,7.88
2018-11-13T05:19:12.406Z,7.90
2018-11-13T05:21:40.913Z,7.92
2018-11-13T05:24:09.792Z,7.91
2018-11-13T05:26:38.360Z,7.92
2018-11-13T05:29:06.802Z,7.92
2018-11-13T05:31:35.361Z,7.95
2018-11-13T05:34:04.145Z,7.93
2018-11-13T05:36:32.602Z,7.94
2018-11-13T05:39:01.261Z,7.95
2018-11-13T05:41:29.841Z,7.99
2018-11-13T05:43:58.305Z,8.00
2018-11-13T05:46:27.116Z,7.99
2018-11-13T05:48:55.669Z,8.00
2018-11-13T05:51:24.121Z,8.02
2018-11-13T05:53:52.881Z,8.04
2018-11-13T05:56:21.702Z,8.06
2018-11-13T05:58:50.268Z,8.06
2018-11-13T06:01:19.190Z,8.05
2018-11-13T06:03:47.893Z,8.06
2018-11-13T06:06:16.416Z,8.07
2018-11-13T06:08:45.161Z,8.06
2018-11-13T06:11:13.826Z,8.07
2018-11-13T06:13:42.286Z,8.07
2018-11-13T06:16:10.902Z,8.09
2018-11-13T06:18:39.565Z,8.09
2018-11-13T06:21:08.082Z,8.10
2018-11-13T06:23:36.712Z,8.11
2018-11-13T06:26:05.310Z,8.12
2018-11-13T06:28:33.752Z,8.10
2018-11-13T06:31:02.298Z,8.12
2018-11-13T06:33:31.070Z,8.15
2018-11-13T06:35:59.605Z,8.15
2018-11-13T06:38:28.469Z,8.15
2018-11-13T06:40:57.058Z,8.17
2018-11-13T06:43:25.511Z,8.18
2018-11-13T06:45:54.530Z,8.18
2018-11-13T06:48:23.548Z,8.20
2018-11-13T06:50:51.993Z,8.18
2018-11-13T06:53:20.689Z,8.18
2018-11-13T06:55:52.179Z,8.20
2018-11-13T06:58:20.610Z,8.21
2018-11-13T07:00:49.426Z,8.19
2018-11-13T07:03:18.133Z,8.20
2018-11-13T07:05:46.582Z,8.22
2018-11-13T07:08:15.169Z,8.22
2018-11-13T07:10:44.440Z,8.22
2018-11-13T07:13:12.901Z,8.22
2018-11-13T07:15:41.866Z,8.20
2018-11-13T07:18:11.091Z,8.20
2018-11-13T07:20:39.656Z,8.19
2018-11-13T07:23:08.287Z,8.20
2018-11-13T07:25:36.944Z,8.20
2018-11-13T07:28:05.417Z,8.22
2018-11-13T07:30:33.942Z,8.23
2018-11-13T07:33:02.898Z,8.22
2018-11-13T07:35:31.338Z,8.22
2018-11-13T07:38:00.586Z,8.24
2018-11-13T07:40:29.405Z,8.23
2018-11-13T07:42:57.903Z,8.23
2018-11-13T07:45:26.753Z,8.23
2018-11-13T07:47:55.659Z,8.19
2018-11-13T07:50:24.169Z,8.18
2018-11-13T07:52:52.802Z,8.15
2018-11-13T07:55:21.679Z,8.15
2018-11-13T07:57:50.137Z,8.14
2018-11-13T08:00:22.770Z,8.15
2018-11-13T08:02:52.563Z,8.14
2018-11-13T08:05:21.477Z,8.10
2018-11-13T08:07:50.115Z,8.07
2018-11-13T08:10:18.753Z,8.06
2018-11-13T08:12:47.895Z,8.08
2018-11-13T08:15:17.753Z,8.08
2018-11-13T08:17:46.257Z,7.93
2018-11-13T08:20:15.708Z,8.04
2018-11-13T08:22:45.006Z,7.99
2018-11-13T08:25:13.777Z,7.94
2018-11-13T08:27:42.717Z,7.90
2018-11-13T08:30:14.946Z,7.89
2018-11-13T08:32:44.074Z,7.91
2018-11-13T08:35:12.534Z,7.90
2018-11-13T08:37:41.718Z,7.91
2018-11-13T08:40:12.606Z,7.93
2018-11-13T08:42:41.490Z,7.95
2018-11-13T08:45:10.844Z,7.98
2018-11-13T08:47:39.777Z,8.00
2018-11-13T08:50:08.527Z,8.01
2018-11-13T08:52:37.428Z,8.06
2018-11-13T08:55:06.777Z,8.08
2018-11-13T08:57:35.885Z,8.12
2018-11-13T09:00:05.320Z,8.18
2018-11-13T09:02:33.867Z,8.19
2018-11-13T09:05:02.448Z,8.20
2018-11-13T09:07:31.106Z,8.17
2018-11-13T09:09:59.659Z,8.14
2018-11-13T09:12:28.311Z,8.18
2018-11-13T09:14:57.135Z,8.17
2018-11-13T09:17:25.658Z,8.18
2018-11-13T09:19:54.156Z,8.17
2018-11-13T09:22:23.213Z,8.17
2018-11-13T09:24:52.206Z,8.19
2018-11-13T09:27:20.688Z,8.23
2018-11-13T09:29:49.425Z,8.25
2018-11-13T09:32:18.346Z,8.26
2018-11-13T09:34:46.779Z,8.29
2018-11-13T09:37:15.644Z,8.30
2018-11-13T09:39:44.413Z,8.31
2018-11-13T09:42:12.936Z,8.32
2018-11-13T09:44:41.524Z,8.33
2018-11-13T09:47:10.073Z,8.33
2018-11-13T09:49:38.567Z,8.28
2018-11-13T09:52:07.721Z,8.24
2018-11-13T09:54:36.433Z,8.22
2018-11-13T09:57:04.957Z,8.22
2018-11-13T09:59:33.495Z,8.20
2018-11-13T10:02:03.598Z,8.21
2018-11-13T10:04:32.297Z,8.22
2018-11-13T10:07:00.284Z,8.24
2018-11-13T10:09:28.950Z,8.25
2018-11-13T10:11:57.418Z,8.26
2018-11-13T10:14:26.181Z,8.24
2018-11-13T10:16:55.009Z,8.24
2018-11-13T10:19:23.533Z,8.18
2018-11-13T10:21:52.242Z,8.20
2018-11-13T10:24:20.778Z,8.21
2018-11-13T10:26:49.388Z,8.20
2018-11-13T10:29:18.302Z,8.20
2018-11-13T10:31:47.120Z,8.17
2018-11-13T10:34:15.610Z,8.17
2018-11-13T10:36:44.983Z,8.20
2018-11-13T10:39:13.817Z,8.23
2018-11-13T10:41:42.305Z,8.24
2018-11-13T10:44:11.030Z,8.28
2018-11-13T10:46:39.762Z,8.31
2018-11-13T10:49:08.539Z,8.37
2018-11-13T10:51:37.390Z,8.35
2018-11-13T10:54:06.115Z,8.33
2018-11-13T10:56:34.639Z,8.37
2018-11-13T10:59:03.690Z,8.40
2018-11-13T11:01:37.495Z,8.44
2018-11-13T11:05:13.008Z,8.50
2018-11-13T11:07:41.481Z,8.52
2018-11-13T11:10:10.733Z,8.53
2018-11-13T11:12:39.740Z,8.59
2018-11-13T11:15:09.073Z,8.60
2018-11-13T11:17:38.009Z,8.63
2018-11-13T11:20:08.429Z,8.64
2018-11-13T11:22:37.012Z,8.63
2018-11-13T11:25:06.867Z,8.71
2018-11-13T11:27:35.790Z,8.73
2018-11-13T11:30:04.744Z,8.77
2018-11-13T11:32:33.286Z,8.79
2018-11-13T11:35:02.150Z,8.76
2018-11-13T11:37:30.919Z,8.73
2018-11-13T11:40:06.591Z,8.74
2018-11-13T11:42:35.124Z,8.75
2018-11-13T11:45:03.603Z,8.73
2018-11-13T11:47:32.639Z,8.70
2018-11-13T11:50:01.112Z,8.61
2018-11-13T11:52:29.568Z,8.58
2018-11-13T11:54:58.697Z,8.55
2018-11-13T11:57:27.606Z,8.49
2018-11-13T11:59:56.141Z,8.47
2018-11-13T12:02:25.018Z,8.43
2018-11-13T12:04:53.418Z,8.40
2018-11-13T12:07:21.867Z,8.39
2018-11-13T12:09:50.810Z,8.32
2018-11-13T12:12:19.528Z,8.33
2018-11-13T12:14:47.904Z,8.33
2018-11-13T12:17:16.862Z,8.30
2018-11-13T12:19:45.350Z,8.31
2018-11-13T12:22:14.055Z,8.32
2018-11-13T12:24:42.695Z,8.35
2018-11-13T12:27:11.169Z,8.38
2018-11-13T12:29:39.721Z,8.42
2018-11-13T12:32:07.951Z,8.43
2018-11-13T12:34:36.445Z,8.44
2018-11-13T12:37:04.889Z,8.44
2018-11-13T12:39:33.865Z,8.50
2018-11-13T12:42:02.344Z,8.52
2018-11-13T12:44:30.893Z,8.51
2018-11-13T12:46:59.513Z,8.51
2018-11-13T12:49:28.073Z,8.53
2018-11-13T12:52:01.841Z,8.56
2018-11-13T12:54:30.485Z,8.56
2018-11-13T12:56:58.949Z,8.60
2018-11-13T12:59:27.591Z,8.63
2018-11-13T13:01:56.257Z,8.63
2018-11-13T13:04:24.701Z,8.63
2018-11-13T13:06:53.334Z,8.63
2018-11-13T13:09:22.085Z,8.63
2018-11-13T13:11:50.583Z,8.61
2018-11-13T13:14:19.763Z,8.59
2018-11-13T13:16:49.769Z,8.58
2018-11-13T13:19:18.246Z,8.63
2018-11-13T13:21:47.619Z,8.67
2018-11-13T13:24:16.217Z,8.65
2018-11-13T13:26:44.665Z,8.67
2018-11-13T13:29:13.350Z,8.68
2018-11-13T13:31:41.951Z,8.71
2018-11-13T13:34:10.394Z,8.71
2018-11-13T13:36:39.411Z,8.76
2018-11-13T13:39:09.077Z,8.82
2018-11-13T13:41:37.541Z,8.82
2018-11-13T13:44:06.690Z,8.84
2018-11-13T13:46:35.565Z,8.84
2018-11-13T13:49:04.365Z,8.77
2018-11-13T13:51:32.981Z,8.77
2018-11-13T13:54:01.950Z,8.72
2018-11-13T13:56:30.486Z,8.67
2018-11-13T13:58:59.418Z,8.63
2018-11-13T14:01:27.993Z,8.61
2018-11-13T14:03:56.833Z,8.60
2018-11-13T14:06:25.837Z,8.57
2018-11-13T14:08:54.439Z,8.55
2018-11-13T14:11:22.914Z,8.52
2018-11-13T14:13:51.835Z,8.49
2018-11-13T14:16:20.617Z,8.49
2018-11-13T14:18:49.093Z,8.49
2018-11-13T14:21:18.266Z,8.50
2018-11-13T14:23:47.578Z,8.51
2018-11-13T14:26:16.082Z,8.51
2018-11-13T14:28:44.663Z,8.50
2018-11-13T14:31:13.657Z,8.51
2018-11-13T14:33:42.123Z,8.51
2018-11-13T14:36:10.949Z,8.53
2018-11-13T14:38:39.721Z,8.53
2018-11-13T14:41:08.177Z,8.49
2018-11-13T14:43:36.996Z,8.54
2018-11-13T14:46:06.136Z,8.55
2018-11-13T14:48:34.602Z,8.55
2018-11-13T14:51:03.489Z,8.54
2018-11-13T14:53:32.446Z,8.51
2018-11-13T14:56:01.913Z,8.47
2018-11-13T14:58:30.515Z,8.43
2018-11-13T15:00:59.117Z,8.42
2018-11-13T15:03:27.590Z,8.38
2018-11-13T15:05:56.411Z,8.36
2018-11-13T15:08:25.265Z,8.31
2018-11-13T15:10:54.607Z,8.29
2018-11-13T15:13:24.486Z,8.27
2018-11-13T15:15:53.376Z,8.24
2018-11-13T15:18:22.264Z,8.22
2018-11-13T15:20:52.185Z,8.20
2018-11-13T15:23:21.013Z,8.15
2018-11-13T15:25:49.574Z,8.13
2018-11-13T15:28:18.147Z,8.11
2018-11-13T15:30:48.692Z,8.07
2018-11-13T15:33:18.818Z,8.04
2018-11-13T15:35:48.284Z,8.02
2018-11-13T15:38:17.061Z,7.99
2018-11-13T15:40:45.889Z,7.98
2018-11-13T15:43:17.124Z,8.01
2018-11-13T15:45:45.889Z,8.02
2018-11-13T15:48:15.661Z,8.06
2018-11-13T15:50:44.313Z,8.08
2018-11-13T15:53:12.973Z,8.11
2018-11-13T15:55:41.488Z,8.15
2018-11-13T15:58:10.454Z,8.19
2018-11-13T16:00:40.441Z,8.22
2018-11-13T16:03:12.354Z,8.25
2018-11-13T16:05:43.218Z,8.29
2018-11-13T16:08:12.064Z,8.30
2018-11-13T16:10:40.687Z,8.35
2018-11-13T16:13:09.791Z,8.40
2018-11-13T16:15:38.382Z,8.41
2018-11-13T16:18:09.443Z,8.42
2018-11-13T16:20:38.148Z,8.43
2018-11-13T16:23:07.418Z,8.43
2018-11-13T16:25:36.032Z,8.43
2018-11-13T16:28:04.881Z,8.43
2018-11-13T16:30:34.783Z,8.42
2018-11-13T16:33:03.417Z,8.42
2018-11-13T16:35:35.422Z,8.43
2018-11-13T16:38:05.742Z,8.44
2018-11-13T16:40:34.763Z,8.44
2018-11-13T16:43:03.358Z,8.44
2018-11-13T16:45:33.314Z,8.46
2018-11-13T16:48:06.498Z,8.47
2018-11-13T16:50:39.178Z,8.45
2018-11-13T16:53:08.057Z,8.46
2018-11-13T16:55:41.822Z,8.48
2018-11-13T16:58:11.798Z,8.48
2018-11-13T17:00:40.430Z,8.49
2018-11-13T17:03:09.153Z,8.49
2018-11-13T17:05:37.983Z,8.50
2018-11-13T17:08:06.543Z,8.50
2018-11-13T17:10:39.805Z,8.50
2018-11-13T17:13:08.614Z,8.50
2018-11-13T17:15:37.109Z,8.49
2018-11-13T17:18:06.641Z,8.50
2018-11-13T17:20:35.630Z,8.48
2018-11-13T17:23:04.361Z,8.49
2018-11-13T17:25:35.509Z,8.48
2018-11-13T17:28:04.061Z,8.49
2018-11-13T17:30:33.885Z,8.48
2018-11-13T17:33:03.953Z,8.49
2018-11-13T17:35:32.947Z,8.49
2018-11-13T17:38:02.097Z,8.50
2018-11-13T17:40:32.053Z,8.51
2018-11-13T17:43:01.831Z,8.51
2018-11-13T17:45:36.605Z,8.51
2018-11-13T17:48:05.606Z,8.51
2018-11-13T17:50:35.383Z,8.51
2018-11-13T17:53:04.457Z,8.52
2018-11-13T17:55:32.962Z,8.52
2018-11-13T17:58:03.267Z,8.53
2018-11-13T18:00:34.465Z,8.52
2018-11-13T18:03:03.746Z,8.51
2018-11-13T18:05:32.731Z,8.50
2018-11-13T18:08:02.316Z,8.51
2018-11-13T18:10:31.732Z,8.52
2018-11-13T18:13:00.907Z,8.51
2018-11-13T18:15:30.029Z,8.52
2018-11-13T18:17:58.693Z,8.50
2018-11-13T18:20:28.666Z,8.50
2018-11-13T18:22:57.191Z,8.19
2018-11-13T18:25:26.234Z,8.47
2018-11-13T18:27:56.195Z,8.46
2018-11-13T18:30:25.964Z,8.46
2018-11-13T18:32:55.210Z,8.46
2018-11-13T18:35:28.139Z,8.44
2018-11-13T18:37:57.312Z,8.42
2018-11-13T18:40:26.404Z,8.41
2018-11-13T18:42:56.101Z,8.39
2018-11-13T18:45:27.033Z,8.34
2018-11-13T18:47:55.509Z,8.35
2018-11-13T18:50:25.987Z,8.34
2018-11-13T18:52:54.532Z,8.33
2018-11-13T18:55:23.005Z,8.30
2018-11-13T18:57:51.681Z,8.28
2018-11-13T19:00:22.745Z,8.26
2018-11-13T19:02:52.778Z,8.22
2018-11-13T19:05:21.841Z,8.18
2018-11-13T19:07:50.386Z,8.18
2018-11-13T19:10:26.491Z,8.12
2018-11-13T19:12:56.001Z,8.09
2018-11-13T19:15:25.721Z,8.05
2018-11-13T19:17:54.744Z,8.01
2018-11-13T19:20:24.452Z,7.97
2018-11-13T19:22:53.390Z,7.92
2018-11-13T19:25:23.509Z,7.89
2018-11-13T19:27:52.494Z,7.87
2018-11-13T19:30:21.651Z,7.84
2018-11-13T19:32:50.487Z,7.80
2018-11-13T19:35:19.669Z,7.77
2018-11-13T19:37:48.127Z,7.76
2018-11-13T19:40:34.473Z,7.71
2018-11-13T19:43:04.560Z,7.15
2018-11-13T19:45:33.020Z,7.65
2018-11-13T19:48:01.699Z,7.63
2018-11-13T19:50:32.576Z,7.46
2018-11-13T19:53:01.073Z,7.62
2018-11-13T19:55:30.768Z,7.63
2018-11-13T19:58:00.659Z,7.64
2018-11-13T20:00:31.420Z,7.63
2018-11-13T20:03:01.141Z,7.67
2018-11-13T20:05:30.445Z,7.71
2018-11-13T20:07:59.564Z,7.75
2018-11-13T20:10:30.382Z,7.79
2018-11-13T20:13:00.788Z,7.83
2018-11-13T20:15:29.941Z,7.86
2018-11-13T20:17:58.428Z,7.89
2018-11-13T20:20:28.158Z,7.90
2018-11-13T20:22:57.269Z,7.93
2018-11-13T20:25:29.474Z,7.94
2018-11-13T20:27:58.507Z,7.96
2018-11-13T20:30:28.469Z,7.96
2018-11-13T20:32:57.333Z,7.96
2018-11-13T20:35:26.093Z,7.97
2018-11-13T20:37:55.377Z,7.97
2018-11-13T20:40:27.386Z,7.98
2018-11-13T20:42:57.210Z,7.99
2018-11-13T20:45:25.810Z,8.00
2018-11-13T20:47:54.981Z,8.00
2018-11-13T20:50:24.893Z,8.01
2018-11-13T20:52:53.549Z,8.00
2018-11-13T20:55:22.213Z,7.99
2018-11-13T20:57:50.903Z,7.99
2018-11-13T21:00:23.710Z,7.97
2018-11-13T21:02:52.366Z,7.96
2018-11-13T21:05:20.887Z,7.97
2018-11-13T21:07:49.792Z,7.97
2018-11-13T21:10:19.879Z,7.98
2018-11-13T21:12:48.644Z,7.96
2018-11-13T21:15:19.059Z,7.95
2018-11-13T21:17:47.921Z,7.96
2018-11-13T21:20:17.532Z,7.98
2018-11-13T21:22:46.202Z,7.99
2018-11-13T21:25:16.137Z,8.00
2018-11-13T21:27:44.665Z,8.02
2018-11-13T21:30:19.098Z,8.04
2018-11-13T21:32:48.416Z,8.06
2018-11-13T21:35:17.202Z,8.07
2018-11-13T21:37:47.514Z,8.07
2018-11-13T21:40:17.599Z,8.07
2018-11-13T21:42:47.145Z,8.09
2018-11-13T21:45:16.235Z,8.08
2018-11-13T21:47:44.799Z,8.11
2018-11-13T21:50:14.797Z,8.10
2018-11-13T21:52:43.839Z,8.10
2018-11-13T21:55:14.230Z,8.11
2018-11-13T21:57:43.495Z,8.12
2018-11-13T22:00:17.570Z,8.12
2018-11-13T22:02:48.959Z,8.12
2018-11-13T22:05:17.546Z,8.11
2018-11-13T22:07:46.699Z,8.12
2018-11-13T22:10:15.438Z,8.12
2018-11-13T22:12:44.418Z,8.11
2018-11-13T22:15:15.428Z,8.13
2018-11-13T22:17:45.594Z,8.13
2018-11-13T22:20:15.427Z,8.11
2018-11-13T22:22:44.340Z,8.12
2018-11-13T22:25:15.225Z,8.13
2018-11-13T22:27:44.663Z,8.12
2018-11-13T22:30:15.438Z,8.13
2018-11-13T22:32:44.329Z,8.13
2018-11-13T22:35:13.545Z,8.14
2018-11-13T22:37:42.274Z,8.14
2018-11-13T22:40:13.285Z,8.12
2018-11-13T22:42:42.083Z,8.12
2018-11-13T22:45:14.236Z,8.11
2018-11-13T22:47:43.100Z,8.10
2018-11-13T22:50:15.314Z,8.09
2018-11-13T22:52:44.290Z,8.06
2018-11-13T22:55:13.392Z,8.02
2018-11-13T22:57:43.187Z,8.00
2018-11-13T23:00:16.054Z,7.97
2018-11-13T23:02:44.365Z,7.95
2018-11-13T23:05:12.834Z,7.94
2018-11-13T23:07:41.653Z,7.93
2018-11-13T23:10:11.789Z,7.91
2018-11-13T23:12:40.853Z,7.90
2018-11-13T23:15:12.243Z,7.88
2018-11-13T23:17:41.388Z,7.88
2018-11-13T23:20:12.078Z,7.88
2018-11-13T23:22:41.112Z,7.88
2018-11-13T23:25:11.546Z,7.88
2018-11-13T23:27:40.069Z,7.87
2018-11-13T23:30:12.873Z,7.84
2018-11-13T23:32:41.482Z,7.82
2018-11-13T23:35:11.061Z,7.79
2018-11-13T23:37:40.175Z,7.76
2018-11-13T23:40:10.756Z,7.76
2018-11-13T23:42:39.545Z,7.76
2018-11-13T23:45:09.357Z,7.76
2018-11-13T23:47:37.896Z,7.78
2018-11-13T23:50:07.186Z,7.78
2018-11-13T23:52:35.882Z,7.76
2018-11-13T23:55:04.386Z,7.75
2018-11-13T23:57:32.857Z,7.74
